sensor_id;sensor_type;location;lat;lon;timestamp;P1;durP1;ratioP1;P2;durP2;ratioP2
21392;SDS011;10857;52.228;21.026;2023-10-19T00:02:49;42.23;;;23.80;;
21392;SDS011;10857;52.228;21.026;2023-10-19T00:05:19;41.13;;;22.93;;
21392;SDS011;10857;52.228;21.026;2023-10-19T00:07:46;40.47;;;24.27;;
21392;SDS011;10857;52.228;21.026;2023-10-19T00:10:13;40.87;;;24.07;;
21392;SDS011;10857;52.228;21.026;2023-10-19T00:12:44;41.90;;;24.40;;
21392;SDS011;10857;52.228;21.026;2023-10-19T00:15:16;44.40;;;24.33;;
21392;SDS011;10857;52.228;21.026;2023-10-19T00:17:49;46.00;;;24.13;;
21392;SDS011;10857;52.228;21.026;2023-10-19T00:20:21;40.70;;;24.33;;
21392;SDS011;10857;52.228;21.026;2023-10-19T00:23:15;48.77;;;25.27;;
21392;SDS011;10857;52.228;21.026;2023-10-19T00:25:45;46.00;;;25.77;;
21392;SDS011;10857;52.228;21.026;2023-10-19T00:28:18;45.37;;;25.93;;
21392;SDS011;10857;52.228;21.026;2023-10-19T00:30:45;47.50;;;26.27;;
21392;SDS011;10857;52.228;21.026;2023-10-19T00:33:15;44.57;;;25.83;;
21392;SDS011;10857;52.228;21.026;2023-10-19T00:35:47;46.33;;;26.33;;
21392;SDS011;10857;52.228;21.026;2023-10-19T00:38:24;46.93;;;26.07;;
21392;SDS011;10857;52.228;21.026;2023-10-19T00:41:07;51.10;;;27.20;;
21392;SDS011;10857;52.228;21.026;2023-10-19T00:43:40;46.30;;;27.33;;
21392;SDS011;10857;52.228;21.026;2023-10-19T00:51:18;51.97;;;28.80;;
21392;SDS011;10857;52.228;21.026;2023-10-19T00:53:55;53.50;;;29.67;;
21392;SDS011;10857;52.228;21.026;2023-10-19T00:56:25;56.10;;;29.80;;
21392;SDS011;10857;52.228;21.026;2023-10-19T00:58:58;64.57;;;29.93;;
21392;SDS011;10857;52.228;21.026;2023-10-19T01:01:46;60.10;;;29.57;;
21392;SDS011;10857;52.228;21.026;2023-10-19T01:04:16;55.30;;;30.77;;
21392;SDS011;10857;52.228;21.026;2023-10-19T01:06:50;58.83;;;30.77;;
21392;SDS011;10857;52.228;21.026;2023-10-19T01:09:38;58.10;;;31.37;;
21392;SDS011;10857;52.228;21.026;2023-10-19T01:12:07;72.60;;;34.50;;
21392;SDS011;10857;52.228;21.026;2023-10-19T01:15:07;63.80;;;32.13;;
21392;SDS011;10857;52.228;21.026;2023-10-19T01:18:05;62.10;;;32.67;;
21392;SDS011;10857;52.228;21.026;2023-10-19T01:20:33;58.43;;;31.63;;
21392;SDS011;10857;52.228;21.026;2023-10-19T01:23:14;53.57;;;31.53;;
21392;SDS011;10857;52.228;21.026;2023-10-19T01:26:02;62.97;;;32.73;;
21392;SDS011;10857;52.228;21.026;2023-10-19T01:28:37;61.50;;;33.90;;
21392;SDS011;10857;52.228;21.026;2023-10-19T01:31:08;61.00;;;34.13;;
21392;SDS011;10857;52.228;21.026;2023-10-19T01:33:45;64.43;;;35.03;;
21392;SDS011;10857;52.228;21.026;2023-10-19T01:36:12;66.70;;;35.57;;
21392;SDS011;10857;52.228;21.026;2023-10-19T01:38:49;71.13;;;36.27;;
21392;SDS011;10857;52.228;21.026;2023-10-19T01:41:20;69.20;;;36.60;;
21392;SDS011;10857;52.228;21.026;2023-10-19T01:43:52;70.77;;;37.07;;
21392;SDS011;10857;52.228;21.026;2023-10-19T01:46:21;67.70;;;37.37;;
21392;SDS011;10857;52.228;21.026;2023-10-19T01:48:57;68.73;;;37.00;;
21392;SDS011;10857;52.228;21.026;2023-10-19T01:51:25;72.83;;;37.53;;
21392;SDS011;10857;52.228;21.026;2023-10-19T01:53:53;79.17;;;38.77;;
21392;SDS011;10857;52.228;21.026;2023-10-19T01:56:24;71.73;;;37.50;;
21392;SDS011;10857;52.228;21.026;2023-10-19T01:58:52;71.10;;;37.70;;
21392;SDS011;10857;52.228;21.026;2023-10-19T02:01:21;71.77;;;38.43;;
21392;SDS011;10857;52.228;21.026;2023-10-19T02:03:57;72.47;;;38.00;;
21392;SDS011;10857;52.228;21.026;2023-10-19T02:06:27;79.23;;;39.47;;
21392;SDS011;10857;52.228;21.026;2023-10-19T02:09:06;70.27;;;38.40;;
21392;SDS011;10857;52.228;21.026;2023-10-19T02:11:45;76.97;;;39.33;;
21392;SDS011;10857;52.228;21.026;2023-10-19T02:14:15;76.93;;;39.27;;
21392;SDS011;10857;52.228;21.026;2023-10-19T02:16:50;72.10;;;39.47;;
21392;SDS011;10857;52.228;21.026;2023-10-19T02:19:19;76.70;;;40.87;;
21392;SDS011;10857;52.228;21.026;2023-10-19T02:21:51;76.83;;;41.97;;
21392;SDS011;10857;52.228;21.026;2023-10-19T02:24:21;74.83;;;40.63;;
21392;SDS011;10857;52.228;21.026;2023-10-19T02:26:53;73.97;;;41.40;;
21392;SDS011;10857;52.228;21.026;2023-10-19T02:29:22;77.53;;;40.83;;
21392;SDS011;10857;52.228;21.026;2023-10-19T02:31:49;78.80;;;41.60;;
21392;SDS011;10857;52.228;21.026;2023-10-19T02:34:17;80.53;;;41.03;;
21392;SDS011;10857;52.228;21.026;2023-10-19T02:36:45;76.37;;;41.03;;
21392;SDS011;10857;52.228;21.026;2023-10-19T02:39:15;73.13;;;40.57;;
21392;SDS011;10857;52.228;21.026;2023-10-19T02:41:47;76.00;;;41.17;;
21392;SDS011;10857;52.228;21.026;2023-10-19T02:44:16;76.70;;;41.73;;
21392;SDS011;10857;52.228;21.026;2023-10-19T02:46:45;79.37;;;42.27;;
21392;SDS011;10857;52.228;21.026;2023-10-19T02:49:14;76.27;;;41.47;;
21392;SDS011;10857;52.228;21.026;2023-10-19T02:51:46;80.43;;;42.10;;
21392;SDS011;10857;52.228;21.026;2023-10-19T02:54:15;80.07;;;41.83;;
21392;SDS011;10857;52.228;21.026;2023-10-19T02:56:51;78.20;;;41.97;;
21392;SDS011;10857;52.228;21.026;2023-10-19T02:59:20;75.57;;;42.00;;
21392;SDS011;10857;52.228;21.026;2023-10-19T03:04:18;77.57;;;42.07;;
21392;SDS011;10857;52.228;21.026;2023-10-19T03:06:47;77.93;;;42.90;;
21392;SDS011;10857;52.228;21.026;2023-10-19T03:09:18;88.00;;;43.80;;
21392;SDS011;10857;52.228;21.026;2023-10-19T03:11:55;87.87;;;44.50;;
21392;SDS011;10857;52.228;21.026;2023-10-19T03:14:26;80.20;;;43.63;;
21392;SDS011;10857;52.228;21.026;2023-10-19T03:16:54;85.83;;;45.53;;
21392;SDS011;10857;52.228;21.026;2023-10-19T03:19:24;81.77;;;43.67;;
21392;SDS011;10857;52.228;21.026;2023-10-19T03:21:52;83.70;;;43.90;;
21392;SDS011;10857;52.228;21.026;2023-10-19T03:24:22;85.43;;;44.20;;
21392;SDS011;10857;52.228;21.026;2023-10-19T03:27:11;83.17;;;44.27;;
21392;SDS011;10857;52.228;21.026;2023-10-19T03:29:43;83.67;;;44.80;;
21392;SDS011;10857;52.228;21.026;2023-10-19T03:32:21;84.23;;;44.63;;
21392;SDS011;10857;52.228;21.026;2023-10-19T03:34:54;88.90;;;44.40;;
21392;SDS011;10857;52.228;21.026;2023-10-19T03:37:27;79.30;;;44.13;;
21392;SDS011;10857;52.228;21.026;2023-10-19T03:39:58;83.03;;;44.37;;
21392;SDS011;10857;52.228;21.026;2023-10-19T03:42:26;85.87;;;46.20;;
21392;SDS011;10857;52.228;21.026;2023-10-19T03:44:59;85.53;;;46.77;;
21392;SDS011;10857;52.228;21.026;2023-10-19T03:47:29;81.90;;;45.60;;
21392;SDS011;10857;52.228;21.026;2023-10-19T03:50:03;81.47;;;46.20;;
21392;SDS011;10857;52.228;21.026;2023-10-19T03:52:37;84.10;;;46.57;;
21392;SDS011;10857;52.228;21.026;2023-10-19T03:55:06;90.00;;;47.13;;
21392;SDS011;10857;52.228;21.026;2023-10-19T03:57:38;88.20;;;48.00;;
21392;SDS011;10857;52.228;21.026;2023-10-19T04:00:14;85.90;;;46.63;;
21392;SDS011;10857;52.228;21.026;2023-10-19T04:02:46;83.73;;;46.00;;
21392;SDS011;10857;52.228;21.026;2023-10-19T04:05:14;90.23;;;47.70;;
21392;SDS011;10857;52.228;21.026;2023-10-19T04:07:47;92.97;;;47.67;;
21392;SDS011;10857;52.228;21.026;2023-10-19T04:10:16;84.03;;;45.53;;
21392;SDS011;10857;52.228;21.026;2023-10-19T04:12:58;92.13;;;47.73;;
21392;SDS011;10857;52.228;21.026;2023-10-19T04:15:27;90.53;;;47.30;;
21392;SDS011;10857;52.228;21.026;2023-10-19T04:18:02;84.13;;;46.83;;
21392;SDS011;10857;52.228;21.026;2023-10-19T04:20:39;91.63;;;48.20;;
21392;SDS011;10857;52.228;21.026;2023-10-19T04:23:22;95.50;;;48.40;;
21392;SDS011;10857;52.228;21.026;2023-10-19T04:25:57;95.30;;;49.90;;
21392;SDS011;10857;52.228;21.026;2023-10-19T04:28:25;96.07;;;50.60;;
21392;SDS011;10857;52.228;21.026;2023-10-19T04:31:08;95.50;;;48.97;;
21392;SDS011;10857;52.228;21.026;2023-10-19T04:33:40;94.27;;;49.17;;
21392;SDS011;10857;52.228;21.026;2023-10-19T04:36:09;93.07;;;50.30;;
21392;SDS011;10857;52.228;21.026;2023-10-19T04:38:38;96.87;;;49.70;;
21392;SDS011;10857;52.228;21.026;2023-10-19T04:41:08;90.60;;;49.73;;
21392;SDS011;10857;52.228;21.026;2023-10-19T04:43:37;90.13;;;49.83;;
21392;SDS011;10857;52.228;21.026;2023-10-19T04:46:06;98.20;;;49.83;;
21392;SDS011;10857;52.228;21.026;2023-10-19T04:48:38;98.43;;;50.70;;
21392;SDS011;10857;52.228;21.026;2023-10-19T04:51:06;92.90;;;49.37;;
21392;SDS011;10857;52.228;21.026;2023-10-19T04:53:35;95.67;;;50.30;;
21392;SDS011;10857;52.228;21.026;2023-10-19T04:56:04;90.10;;;49.73;;
21392;SDS011;10857;52.228;21.026;2023-10-19T04:58:31;92.90;;;52.53;;
21392;SDS011;10857;52.228;21.026;2023-10-19T05:00:59;88.13;;;50.20;;
21392;SDS011;10857;52.228;21.026;2023-10-19T05:03:27;88.33;;;48.40;;
21392;SDS011;10857;52.228;21.026;2023-10-19T05:05:54;85.33;;;46.50;;
21392;SDS011;10857;52.228;21.026;2023-10-19T05:08:23;80.73;;;43.03;;
21392;SDS011;10857;52.228;21.026;2023-10-19T05:10:55;84.37;;;42.67;;
21392;SDS011;10857;52.228;21.026;2023-10-19T05:13:26;76.37;;;41.10;;
21392;SDS011;10857;52.228;21.026;2023-10-19T05:15:54;72.47;;;42.20;;
21392;SDS011;10857;52.228;21.026;2023-10-19T05:18:22;80.43;;;42.83;;
21392;SDS011;10857;52.228;21.026;2023-10-19T05:20:49;68.00;;;37.33;;
21392;SDS011;10857;52.228;21.026;2023-10-19T05:23:24;59.90;;;34.67;;
21392;SDS011;10857;52.228;21.026;2023-10-19T05:25:52;56.73;;;33.60;;
21392;SDS011;10857;52.228;21.026;2023-10-19T05:28:26;56.43;;;31.60;;
21392;SDS011;10857;52.228;21.026;2023-10-19T05:30:54;59.07;;;33.17;;
21392;SDS011;10857;52.228;21.026;2023-10-19T05:33:21;58.33;;;32.47;;
21392;SDS011;10857;52.228;21.026;2023-10-19T05:35:50;59.23;;;33.47;;
21392;SDS011;10857;52.228;21.026;2023-10-19T05:38:17;66.57;;;34.63;;
21392;SDS011;10857;52.228;21.026;2023-10-19T05:40:46;65.00;;;35.60;;
21392;SDS011;10857;52.228;21.026;2023-10-19T05:43:14;69.30;;;35.77;;
21392;SDS011;10857;52.228;21.026;2023-10-19T05:45:42;66.27;;;35.83;;
21392;SDS011;10857;52.228;21.026;2023-10-19T05:48:09;75.33;;;38.23;;
21392;SDS011;10857;52.228;21.026;2023-10-19T05:50:37;67.87;;;35.83;;
21392;SDS011;10857;52.228;21.026;2023-10-19T05:53:09;67.77;;;36.27;;
21392;SDS011;10857;52.228;21.026;2023-10-19T05:55:37;65.70;;;35.53;;
21392;SDS011;10857;52.228;21.026;2023-10-19T05:58:06;66.03;;;33.40;;
21392;SDS011;10857;52.228;21.026;2023-10-19T06:00:33;62.67;;;34.87;;
21392;SDS011;10857;52.228;21.026;2023-10-19T06:03:01;63.33;;;35.33;;
21392;SDS011;10857;52.228;21.026;2023-10-19T06:05:28;63.13;;;33.93;;
21392;SDS011;10857;52.228;21.026;2023-10-19T06:07:56;62.10;;;32.77;;
21392;SDS011;10857;52.228;21.026;2023-10-19T06:10:27;62.80;;;33.47;;
21392;SDS011;10857;52.228;21.026;2023-10-19T06:12:55;75.43;;;33.90;;
21392;SDS011;10857;52.228;21.026;2023-10-19T06:15:23;65.97;;;33.30;;
21392;SDS011;10857;52.228;21.026;2023-10-19T06:17:51;65.47;;;33.17;;
21392;SDS011;10857;52.228;21.026;2023-10-19T06:20:19;63.33;;;33.93;;
21392;SDS011;10857;52.228;21.026;2023-10-19T06:22:51;68.70;;;35.60;;
21392;SDS011;10857;52.228;21.026;2023-10-19T06:25:25;72.60;;;34.30;;
21392;SDS011;10857;52.228;21.026;2023-10-19T06:27:52;63.10;;;32.97;;
21392;SDS011;10857;52.228;21.026;2023-10-19T06:30:24;62.63;;;33.10;;
21392;SDS011;10857;52.228;21.026;2023-10-19T06:32:55;63.37;;;33.87;;
21392;SDS011;10857;52.228;21.026;2023-10-19T06:35:27;66.40;;;34.00;;
21392;SDS011;10857;52.228;21.026;2023-10-19T06:37:56;65.17;;;34.47;;
21392;SDS011;10857;52.228;21.026;2023-10-19T06:40:23;66.90;;;34.33;;
21392;SDS011;10857;52.228;21.026;2023-10-19T06:42:50;63.37;;;33.63;;
21392;SDS011;10857;52.228;21.026;2023-10-19T06:45:17;63.17;;;34.13;;
21392;SDS011;10857;52.228;21.026;2023-10-19T06:47:46;60.37;;;32.23;;
21392;SDS011;10857;52.228;21.026;2023-10-19T06:50:15;61.83;;;32.60;;
21392;SDS011;10857;52.228;21.026;2023-10-19T06:52:48;61.87;;;32.70;;
21392;SDS011;10857;52.228;21.026;2023-10-19T06:55:17;58.10;;;31.50;;
21392;SDS011;10857;52.228;21.026;2023-10-19T06:57:48;61.97;;;33.00;;
21392;SDS011;10857;52.228;21.026;2023-10-19T07:00:17;55.10;;;31.70;;
21392;SDS011;10857;52.228;21.026;2023-10-19T07:02:49;61.77;;;30.97;;
21392;SDS011;10857;52.228;21.026;2023-10-19T07:05:19;58.13;;;31.10;;
21392;SDS011;10857;52.228;21.026;2023-10-19T07:07:48;64.70;;;31.03;;
21392;SDS011;10857;52.228;21.026;2023-10-19T07:10:19;55.57;;;30.17;;
21392;SDS011;10857;52.228;21.026;2023-10-19T07:12:47;58.80;;;30.43;;
21392;SDS011;10857;52.228;21.026;2023-10-19T07:15:17;55.50;;;30.13;;
21392;SDS011;10857;52.228;21.026;2023-10-19T07:17:57;51.53;;;29.43;;
21392;SDS011;10857;52.228;21.026;2023-10-19T07:20:25;53.43;;;28.90;;
21392;SDS011;10857;52.228;21.026;2023-10-19T07:22:59;51.50;;;29.10;;
21392;SDS011;10857;52.228;21.026;2023-10-19T07:25:45;53.77;;;29.30;;
21392;SDS011;10857;52.228;21.026;2023-10-19T07:28:15;48.67;;;28.80;;
21392;SDS011;10857;52.228;21.026;2023-10-19T07:30:43;51.00;;;28.87;;
21392;SDS011;10857;52.228;21.026;2023-10-19T07:33:10;49.63;;;29.30;;
21392;SDS011;10857;52.228;21.026;2023-10-19T07:35:46;52.03;;;29.83;;
21392;SDS011;10857;52.228;21.026;2023-10-19T07:38:14;52.97;;;30.03;;
21392;SDS011;10857;52.228;21.026;2023-10-19T07:40:43;57.53;;;30.20;;
21392;SDS011;10857;52.228;21.026;2023-10-19T07:43:10;55.23;;;30.53;;
21392;SDS011;10857;52.228;21.026;2023-10-19T07:45:37;54.43;;;30.47;;
21392;SDS011;10857;52.228;21.026;2023-10-19T07:48:05;50.43;;;28.73;;
21392;SDS011;10857;52.228;21.026;2023-10-19T07:50:34;51.90;;;29.97;;
21392;SDS011;10857;52.228;21.026;2023-10-19T07:53:03;55.07;;;30.23;;
21392;SDS011;10857;52.228;21.026;2023-10-19T07:55:31;54.47;;;29.70;;
21392;SDS011;10857;52.228;21.026;2023-10-19T07:57:59;51.37;;;29.17;;
21392;SDS011;10857;52.228;21.026;2023-10-19T08:00:26;54.33;;;29.43;;
21392;SDS011;10857;52.228;21.026;2023-10-19T08:02:56;49.53;;;28.40;;
21392;SDS011;10857;52.228;21.026;2023-10-19T08:05:23;53.30;;;28.83;;
21392;SDS011;10857;52.228;21.026;2023-10-19T08:07:50;52.47;;;28.20;;
21392;SDS011;10857;52.228;21.026;2023-10-19T08:10:19;47.57;;;27.43;;
21392;SDS011;10857;52.228;21.026;2023-10-19T08:12:47;47.57;;;27.90;;
21392;SDS011;10857;52.228;21.026;2023-10-19T08:15:16;43.77;;;27.03;;
21392;SDS011;10857;52.228;21.026;2023-10-19T08:17:45;45.83;;;27.53;;
21392;SDS011;10857;52.228;21.026;2023-10-19T08:20:14;47.87;;;28.10;;
21392;SDS011;10857;52.228;21.026;2023-10-19T08:22:52;46.23;;;26.60;;
21392;SDS011;10857;52.228;21.026;2023-10-19T08:25:20;46.20;;;26.40;;
21392;SDS011;10857;52.228;21.026;2023-10-19T08:27:48;45.00;;;26.30;;
21392;SDS011;10857;52.228;21.026;2023-10-19T08:30:23;41.50;;;25.93;;
21392;SDS011;10857;52.228;21.026;2023-10-19T08:32:55;47.87;;;26.43;;
21392;SDS011;10857;52.228;21.026;2023-10-19T08:35:26;42.93;;;25.40;;
21392;SDS011;10857;52.228;21.026;2023-10-19T08:37:55;44.50;;;24.90;;
21392;SDS011;10857;52.228;21.026;2023-10-19T08:40:27;43.50;;;25.07;;
21392;SDS011;10857;52.228;21.026;2023-10-19T08:42:54;46.17;;;24.37;;
21392;SDS011;10857;52.228;21.026;2023-10-19T08:45:22;42.10;;;22.80;;
21392;SDS011;10857;52.228;21.026;2023-10-19T08:47:56;35.87;;;21.57;;
21392;SDS011;10857;52.228;21.026;2023-10-19T08:50:28;36.87;;;20.87;;
21392;SDS011;10857;52.228;21.026;2023-10-19T08:53:01;31.30;;;19.33;;
21392;SDS011;10857;52.228;21.026;2023-10-19T08:55:32;31.63;;;19.60;;
21392;SDS011;10857;52.228;21.026;2023-10-19T08:58:16;28.17;;;18.17;;
21392;SDS011;10857;52.228;21.026;2023-10-19T09:00:45;29.83;;;18.50;;
21392;SDS011;10857;52.228;21.026;2023-10-19T09:03:15;27.33;;;17.63;;
21392;SDS011;10857;52.228;21.026;2023-10-19T09:05:47;30.07;;;17.60;;
21392;SDS011;10857;52.228;21.026;2023-10-19T09:08:15;28.03;;;16.87;;
21392;SDS011;10857;52.228;21.026;2023-10-19T09:10:44;27.60;;;17.20;;
21392;SDS011;10857;52.228;21.026;2023-10-19T09:13:12;26.93;;;17.30;;
21392;SDS011;10857;52.228;21.026;2023-10-19T09:15:41;31.90;;;17.63;;
21392;SDS011;10857;52.228;21.026;2023-10-19T09:18:11;27.73;;;17.47;;
21392;SDS011;10857;52.228;21.026;2023-10-19T09:20:46;29.67;;;16.70;;
21392;SDS011;10857;52.228;21.026;2023-10-19T09:25:49;24.93;;;15.70;;
21392;SDS011;10857;52.228;21.026;2023-10-19T09:28:20;26.53;;;15.73;;
21392;SDS011;10857;52.228;21.026;2023-10-19T09:30:51;26.97;;;15.47;;
21392;SDS011;10857;52.228;21.026;2023-10-19T09:33:20;23.43;;;15.47;;
21392;SDS011;10857;52.228;21.026;2023-10-19T09:35:48;22.43;;;13.53;;
21392;SDS011;10857;52.228;21.026;2023-10-19T09:38:19;22.50;;;14.00;;
21392;SDS011;10857;52.228;21.026;2023-10-19T09:40:49;22.23;;;12.97;;
21392;SDS011;10857;52.228;21.026;2023-10-19T09:43:30;19.83;;;12.43;;
21392;SDS011;10857;52.228;21.026;2023-10-19T09:46:05;22.77;;;13.27;;
21392;SDS011;10857;52.228;21.026;2023-10-19T09:48:52;22.07;;;12.27;;
21392;SDS011;10857;52.228;21.026;2023-10-19T09:51:20;19.63;;;12.37;;
21392;SDS011;10857;52.228;21.026;2023-10-19T09:53:53;18.60;;;12.10;;
21392;SDS011;10857;52.228;21.026;2023-10-19T09:56:46;19.60;;;11.67;;
21392;SDS011;10857;52.228;21.026;2023-10-19T09:59:26;20.97;;;12.03;;
21392;SDS011;10857;52.228;21.026;2023-10-19T10:02:07;18.30;;;11.03;;
21392;SDS011;10857;52.228;21.026;2023-10-19T10:04:40;24.63;;;12.20;;
21392;SDS011;10857;52.228;21.026;2023-10-19T10:07:13;17.47;;;10.90;;
21392;SDS011;10857;52.228;21.026;2023-10-19T10:09:45;18.47;;;12.37;;
21392;SDS011;10857;52.228;21.026;2023-10-19T10:12:15;20.97;;;12.27;;
21392;SDS011;10857;52.228;21.026;2023-10-19T10:15:03;17.70;;;12.03;;
21392;SDS011;10857;52.228;21.026;2023-10-19T10:17:38;21.00;;;12.57;;
21392;SDS011;10857;52.228;21.026;2023-10-19T10:22:44;18.23;;;12.03;;
21392;SDS011;10857;52.228;21.026;2023-10-19T10:25:27;20.97;;;12.67;;
21392;SDS011;10857;52.228;21.026;2023-10-19T10:27:55;18.23;;;11.80;;
21392;SDS011;10857;52.228;21.026;2023-10-19T10:30:23;22.20;;;12.57;;
21392;SDS011;10857;52.228;21.026;2023-10-19T10:32:50;21.57;;;12.40;;
21392;SDS011;10857;52.228;21.026;2023-10-19T10:38:07;21.42;;;13.45;;
21392;SDS011;10857;52.228;21.026;2023-10-19T10:40:49;21.13;;;13.40;;
21392;SDS011;10857;52.228;21.026;2023-10-19T10:43:18;18.97;;;12.40;;
21392;SDS011;10857;52.228;21.026;2023-10-19T10:45:46;20.27;;;12.40;;
21392;SDS011;10857;52.228;21.026;2023-10-19T10:48:13;20.57;;;12.23;;
21392;SDS011;10857;52.228;21.026;2023-10-19T10:50:41;21.60;;;12.30;;
21392;SDS011;10857;52.228;21.026;2023-10-19T10:53:09;21.80;;;12.27;;
21392;SDS011;10857;52.228;21.026;2023-10-19T10:55:38;20.20;;;12.67;;
21392;SDS011;10857;52.228;21.026;2023-10-19T10:58:08;19.90;;;12.50;;
21392;SDS011;10857;52.228;21.026;2023-10-19T11:00:42;20.00;;;12.13;;
21392;SDS011;10857;52.228;21.026;2023-10-19T11:03:10;25.07;;;12.57;;
21392;SDS011;10857;52.228;21.026;2023-10-19T11:05:37;20.87;;;11.63;;
21392;SDS011;10857;52.228;21.026;2023-10-19T11:08:08;20.43;;;12.07;;
21392;SDS011;10857;52.228;21.026;2023-10-19T11:10:43;16.70;;;11.43;;
21392;SDS011;10857;52.228;21.026;2023-10-19T11:13:17;20.67;;;12.80;;
21392;SDS011;10857;52.228;21.026;2023-10-19T11:15:53;23.37;;;12.43;;
21392;SDS011;10857;52.228;21.026;2023-10-19T11:21:12;18.80;;;12.13;;
21392;SDS011;10857;52.228;21.026;2023-10-19T11:26:16;21.47;;;11.90;;
21392;SDS011;10857;52.228;21.026;2023-10-19T11:28:46;18.33;;;11.93;;
21392;SDS011;10857;52.228;21.026;2023-10-19T11:31:21;19.07;;;11.83;;
21392;SDS011;10857;52.228;21.026;2023-10-19T11:33:50;17.47;;;11.30;;
21392;SDS011;10857;52.228;21.026;2023-10-19T11:36:20;20.03;;;12.03;;
21392;SDS011;10857;52.228;21.026;2023-10-19T11:38:49;16.47;;;10.87;;
21392;SDS011;10857;52.228;21.026;2023-10-19T11:41:21;24.93;;;12.13;;
21392;SDS011;10857;52.228;21.026;2023-10-19T11:43:49;18.90;;;12.03;;
21392;SDS011;10857;52.228;21.026;2023-10-19T11:46:17;20.70;;;11.60;;
21392;SDS011;10857;52.228;21.026;2023-10-19T11:48:44;18.20;;;11.57;;
21392;SDS011;10857;52.228;21.026;2023-10-19T11:51:11;20.07;;;11.60;;
21392;SDS011;10857;52.228;21.026;2023-10-19T11:53:40;20.60;;;11.93;;
21392;SDS011;10857;52.228;21.026;2023-10-19T11:56:10;20.77;;;12.17;;
21392;SDS011;10857;52.228;21.026;2023-10-19T11:58:41;19.83;;;11.90;;
21392;SDS011;10857;52.228;21.026;2023-10-19T12:01:09;20.43;;;12.63;;
21392;SDS011;10857;52.228;21.026;2023-10-19T12:03:39;20.63;;;12.43;;
21392;SDS011;10857;52.228;21.026;2023-10-19T12:06:07;20.10;;;11.70;;
21392;SDS011;10857;52.228;21.026;2023-10-19T12:08:37;21.40;;;12.43;;
21392;SDS011;10857;52.228;21.026;2023-10-19T12:11:06;21.57;;;12.43;;
21392;SDS011;10857;52.228;21.026;2023-10-19T12:13:42;21.17;;;12.63;;
21392;SDS011;10857;52.228;21.026;2023-10-19T12:16:11;20.67;;;12.30;;
21392;SDS011;10857;52.228;21.026;2023-10-19T12:18:39;20.40;;;12.70;;
21392;SDS011;10857;52.228;21.026;2023-10-19T12:21:06;20.13;;;12.93;;
21392;SDS011;10857;52.228;21.026;2023-10-19T12:23:41;24.50;;;13.70;;
21392;SDS011;10857;52.228;21.026;2023-10-19T12:26:10;21.07;;;13.03;;
21392;SDS011;10857;52.228;21.026;2023-10-19T12:28:38;22.77;;;13.60;;
21392;SDS011;10857;52.228;21.026;2023-10-19T12:31:07;19.93;;;12.60;;
21392;SDS011;10857;52.228;21.026;2023-10-19T12:33:38;23.23;;;13.17;;
21392;SDS011;10857;52.228;21.026;2023-10-19T12:36:14;23.30;;;13.37;;
21392;SDS011;10857;52.228;21.026;2023-10-19T12:39:13;21.33;;;13.00;;
21392;SDS011;10857;52.228;21.026;2023-10-19T12:42:00;22.27;;;13.63;;
21392;SDS011;10857;52.228;21.026;2023-10-19T12:44:27;28.13;;;13.73;;
21392;SDS011;10857;52.228;21.026;2023-10-19T12:47:08;21.17;;;13.50;;
21392;SDS011;10857;52.228;21.026;2023-10-19T12:49:43;22.73;;;14.17;;
21392;SDS011;10857;52.228;21.026;2023-10-19T12:52:12;23.50;;;13.33;;
21392;SDS011;10857;52.228;21.026;2023-10-19T12:54:41;21.83;;;14.80;;
21392;SDS011;10857;52.228;21.026;2023-10-19T12:57:11;20.37;;;13.77;;
21392;SDS011;10857;52.228;21.026;2023-10-19T12:59:39;24.63;;;14.17;;
21392;SDS011;10857;52.228;21.026;2023-10-19T13:02:06;22.55;;;13.43;;
21392;SDS011;10857;52.228;21.026;2023-10-19T13:04:41;24.37;;;14.40;;
21392;SDS011;10857;52.228;21.026;2023-10-19T13:07:13;28.40;;;14.43;;
21392;SDS011;10857;52.228;21.026;2023-10-19T13:09:40;26.47;;;13.80;;
21392;SDS011;10857;52.228;21.026;2023-10-19T13:12:11;23.07;;;14.13;;
21392;SDS011;10857;52.228;21.026;2023-10-19T13:14:39;23.37;;;13.83;;
21392;SDS011;10857;52.228;21.026;2023-10-19T13:17:07;25.00;;;14.90;;
21392;SDS011;10857;52.228;21.026;2023-10-19T13:19:34;26.43;;;14.23;;
21392;SDS011;10857;52.228;21.026;2023-10-19T13:22:03;27.13;;;13.87;;
21392;SDS011;10857;52.228;21.026;2023-10-19T13:24:36;24.03;;;14.10;;
21392;SDS011;10857;52.228;21.026;2023-10-19T13:27:08;24.47;;;13.77;;
21392;SDS011;10857;52.228;21.026;2023-10-19T13:29:35;22.40;;;13.70;;
21392;SDS011;10857;52.228;21.026;2023-10-19T13:32:05;21.50;;;13.63;;
21392;SDS011;10857;52.228;21.026;2023-10-19T13:34:32;22.87;;;13.70;;
21392;SDS011;10857;52.228;21.026;2023-10-19T13:37:00;21.43;;;13.57;;
21392;SDS011;10857;52.228;21.026;2023-10-19T13:39:27;27.97;;;16.63;;
21392;SDS011;10857;52.228;21.026;2023-10-19T13:41:55;23.03;;;14.43;;
21392;SDS011;10857;52.228;21.026;2023-10-19T13:44:22;23.20;;;14.03;;
21392;SDS011;10857;52.228;21.026;2023-10-19T13:46:50;21.50;;;14.97;;
21392;SDS011;10857;52.228;21.026;2023-10-19T13:49:20;25.77;;;14.35;;
21392;SDS011;10857;52.228;21.026;2023-10-19T13:51:49;26.17;;;14.40;;
21392;SDS011;10857;52.228;21.026;2023-10-19T13:54:16;21.23;;;14.33;;
21392;SDS011;10857;52.228;21.026;2023-10-19T13:56:44;22.30;;;14.43;;
21392;SDS011;10857;52.228;21.026;2023-10-19T13:59:12;25.33;;;16.20;;
21392;SDS011;10857;52.228;21.026;2023-10-19T14:01:41;25.17;;;14.60;;
21392;SDS011;10857;52.228;21.026;2023-10-19T14:04:08;22.03;;;14.53;;
21392;SDS011;10857;52.228;21.026;2023-10-19T14:06:35;23.23;;;14.77;;
21392;SDS011;10857;52.228;21.026;2023-10-19T14:09:04;24.60;;;14.27;;
21392;SDS011;10857;52.228;21.026;2023-10-19T14:11:31;22.67;;;14.47;;
21392;SDS011;10857;52.228;21.026;2023-10-19T14:14:04;25.07;;;14.23;;
21392;SDS011;10857;52.228;21.026;2023-10-19T14:16:33;24.57;;;13.67;;
21392;SDS011;10857;52.228;21.026;2023-10-19T14:19:02;21.47;;;14.00;;
21392;SDS011;10857;52.228;21.026;2023-10-19T14:21:31;26.20;;;14.00;;
21392;SDS011;10857;52.228;21.026;2023-10-19T14:24:06;26.67;;;14.23;;
21392;SDS011;10857;52.228;21.026;2023-10-19T14:26:36;29.00;;;15.33;;
21392;SDS011;10857;52.228;21.026;2023-10-19T14:29:05;26.43;;;14.67;;
21392;SDS011;10857;52.228;21.026;2023-10-19T14:31:32;25.03;;;14.17;;
21392;SDS011;10857;52.228;21.026;2023-10-19T14:34:06;26.57;;;14.87;;
21392;SDS011;10857;52.228;21.026;2023-10-19T14:36:34;26.37;;;15.10;;
21392;SDS011;10857;52.228;21.026;2023-10-19T14:39:01;26.20;;;14.90;;
21392;SDS011;10857;52.228;21.026;2023-10-19T14:41:32;25.87;;;14.93;;
21392;SDS011;10857;52.228;21.026;2023-10-19T14:43:59;26.40;;;15.40;;
21392;SDS011;10857;52.228;21.026;2023-10-19T14:46:27;26.33;;;14.83;;
21392;SDS011;10857;52.228;21.026;2023-10-19T14:48:56;26.27;;;14.60;;
21392;SDS011;10857;52.228;21.026;2023-10-19T14:51:23;21.87;;;13.87;;
21392;SDS011;10857;52.228;21.026;2023-10-19T14:53:53;27.80;;;13.73;;